Time;durP1;ratioP1;P1;durP2;ratioP2;P2;SDS_P1;SDS_P2;PMS_P1;PMS_P2;Temp;Humidity;BMP_temperature;BMP_pressure;BME280_temperature;BME280_humidity;BME280_pressure;Samples;Min_cycle;Max_cycle;Signal;HPM_P1;HPM_P2
2022/06/24 00:01:15;;;;;;;2.15;0.65;;;;;;;16.81;73.79;99196.63;5044622;28;20060;-79
2022/06/24 00:03:45;;;;;;;1.33;0.85;;;;;;;16.81;73.96;99186.78;5037958;28;20040;-80
2022/06/24 00:06:16;;;;;;;3.47;0.98;;;;;;;16.88;73.76;99189.41;5054872;28;20075;-76
2022/06/24 00:08:59;;;;;;;2.25;0.70;;;;;;;16.93;73.83;99183.41;5055265;28;20119;-76
2022/06/24 00:11:26;;;;;;;4.43;0.85;;;;;;;16.98;73.81;99180.88;5066499;28;20036;-80
2022/06/24 00:14:04;;;;;;;2.33;1.00;;;;;;;17.02;73.67;99178.59;5049752;28;20036;-80
2022/06/24 00:16:29;;;;;;;5.93;0.77;;;;;;;17.01;73.67;99171.66;5065689;28;20039;-80
2022/06/24 00:19:11;;;;;;;1.95;0.50;;;;;;;17.02;73.66;99170.59;5051768;28;20032;-80
2022/06/24 00:21:37;;;;;;;2.25;0.65;;;;;;;17.05;73.48;99167.50;5058826;28;20029;-80
2022/06/24 00:24:03;;;;;;;2.58;0.60;;;;;;;17.09;73.23;99163.38;5066360;28;20090;-79
2022/06/24 00:26:40;;;;;;;0.93;0.50;;;;;;;17.12;73.12;99162.94;5035213;28;20107;-79
2022/06/24 00:29:06;;;;;;;1.55;0.60;;;;;;;17.15;72.96;99159.03;5062215;28;20051;-79
2022/06/24 00:31:32;;;;;;;0.90;0.40;;;;;;;17.17;73.02;99155.09;5051744;28;20448;-80
2022/06/24 00:33:58;;;;;;;0.90;0.40;;;;;;;17.20;72.91;99151.97;5068200;28;20092;-79
2022/06/24 00:36:24;;;;;;;1.17;1.00;;;;;;;17.20;72.98;99138.63;5027990;28;20113;-79
2022/06/24 00:38:51;;;;;;;0.93;0.50;;;;;;;17.21;72.73;99132.25;5063410;28;20067;-75
2022/06/24 00:41:24;;;;;;;1.42;0.75;;;;;;;17.26;72.49;99136.94;5046022;28;20485;-79
2022/06/24 00:43:55;;;;;;;1.90;0.60;;;;;;;17.29;72.32;99133.00;5051929;28;20032;-79
2022/06/24 00:46:24;;;;;;;2.20;0.70;;;;;;;17.29;72.39;99127.66;5050101;28;20396;-79
2022/06/24 00:48:52;;;;;;;1.33;0.70;;;;;;;17.32;72.26;99121.88;5067187;28;20551;-79
2022/06/24 00:51:20;;;;;;;1.10;0.50;;;;;;;17.36;72.16;99121.22;5068836;28;20024;-79
2022/06/24 00:53:49;;;;;;;0.98;0.50;;;;;;;17.42;71.93;99121.38;5061981;28;20029;-79
2022/06/24 00:56:18;;;;;;;1.08;0.50;;;;;;;17.46;71.70;99112.69;5067418;28;20093;-79
2022/06/24 00:59:01;;;;;;;1.95;0.80;;;;;;;17.40;71.68;99110.91;5039052;28;20090;-79
2022/06/24 01:01:33;;;;;;;3.30;0.80;;;;;;;17.17;72.43;99115.03;5052187;28;20094;-79
2022/06/24 01:04:00;;;;;;;4.68;0.98;;;;;;;16.95;73.45;99107.41;5048862;28;20037;-79
2022/06/24 01:06:27;;;;;;;2.78;1.27;;;;;;;16.80;73.74;99112.28;5066310;28;20071;-79
2022/06/24 01:08:53;;;;;;;3.10;0.85;;;;;;;16.68;74.45;99112.97;5063719;28;20032;-80
2022/06/24 01:11:27;;;;;;;5.57;0.80;;;;;;;16.61;74.72;99104.22;5036443;28;20738;-79
2022/06/24 01:13:54;;;;;;;1.77;0.63;;;;;;;16.65;75.36;99110.75;5067069;28;20423;-79
2022/06/24 01:16:24;;;;;;;2.15;0.80;;;;;;;16.67;74.78;99107.88;5071029;28;20186;-79
2022/06/24 01:18:58;;;;;;;4.90;1.27;;;;;;;16.61;75.24;99107.69;5050765;28;20028;-79
2022/06/24 01:21:56;;;;;;;7.47;1.00;;;;;;;16.52;75.63;99086.84;5050937;28;20036;-80
2022/06/24 01:24:24;;;;;;;1.20;0.70;;;;;;;16.56;75.74;99083.50;5019383;28;20132;-79
2022/06/24 01:26:53;;;;;;;2.67;1.02;;;;;;;16.60;75.46;99087.41;5048992;28;20029;-76
2022/06/24 01:29:20;;;;;;;4.35;1.17;;;;;;;16.68;75.32;99083.63;5063879;28;20032;-75
2022/06/24 01:31:49;;;;;;;2.92;1.00;;;;;;;16.77;75.18;99089.50;5052603;28;20115;-80
2022/06/24 01:34:16;;;;;;;5.65;1.02;;;;;;;16.81;75.03;99080.03;5042489;28;20035;-80
2022/06/24 01:36:42;;;;;;;1.25;0.77;;;;;;;16.82;74.99;99086.19;5066414;28;20063;-80
2022/06/24 01:39:08;;;;;;;1.00;0.60;;;;;;;16.82;74.93;99081.66;5019353;28;20048;-80
2022/06/24 01:41:34;;;;;;;4.53;0.80;;;;;;;16.80;75.14;99078.38;5049352;28;20032;-79
2022/06/24 01:44:01;;;;;;;4.22;1.10;;;;;;;16.80;75.25;99088.28;5045200;28;20040;-79
2022/06/24 01:46:27;;;;;;;2.10;0.90;;;;;;;16.79;75.32;99089.28;5019597;28;20093;-79
2022/06/24 01:48:53;;;;;;;2.85;1.02;;;;;;;16.74;75.31;99084.59;5053830;28;20036;-79
2022/06/24 01:51:22;;;;;;;1.88;0.80;;;;;;;16.73;75.63;99080.31;5053117;28;20024;-79
2022/06/24 01:53:47;;;;;;;4.18;0.75;;;;;;;16.71;75.61;99079.72;5064621;28;20025;-80
2022/06/24 01:56:13;;;;;;;6.05;0.80;;;;;;;16.70;75.79;99070.91;5070526;28;20037;-80
2022/06/24 01:58:39;;;;;;;2.53;0.88;;;;;;;16.68;75.72;99072.97;5050933;28;20115;-79
2022/06/24 02:01:05;;;;;;;4.13;1.52;;;;;;;16.64;75.99;99076.28;5073325;28;20056;-80
2022/06/24 02:03:34;;;;;;;3.28;0.80;;;;;;;16.62;76.12;99073.84;5072648;28;20420;-80
2022/06/24 02:06:03;;;;;;;2.60;0.73;;;;;;;16.59;76.32;99072.44;5070851;28;20025;-80
2022/06/24 02:08:29;;;;;;;3.97;0.90;;;;;;;16.55;76.40;99073.06;5065856;28;20441;-80
2022/06/24 02:13:42;;;;;;;3.17;1.08;;;;;;;16.47;76.65;99061.66;5037430;28;20054;-80
2022/06/24 02:16:08;;;;;;;4.22;1.08;;;;;;;16.46;76.65;99061.88;5049387;28;20469;-76
2022/06/24 02:18:34;;;;;;;3.90;1.02;;;;;;;16.41;76.94;99054.53;5031831;28;20071;-76
2022/06/24 02:21:01;;;;;;;2.38;0.98;;;;;;;16.34;77.14;99053.75;5072497;28;20039;-79
2022/06/24 02:23:27;;;;;;;3.55;1.27;;;;;;;16.31;77.30;99056.88;5053584;28;20475;-80
2022/06/24 02:25:54;;;;;;;7.45;1.40;;;;;;;16.29;77.54;99056.25;5066851;28;20055;-79
2022/06/24 02:28:21;;;;;;;2.35;0.98;;;;;;;16.28;77.69;99060.75;5052494;28;20028;-79
2022/06/24 02:30:47;;;;;;;3.42;1.30;;;;;;;16.27;77.97;99052.97;5053878;28;20070;-79
2022/06/24 02:33:14;;;;;;;2.33;1.00;;;;;;;16.25;78.03;99047.88;5056752;28;20085;-79
2022/06/24 02:35:41;;;;;;;3.50;1.05;;;;;;;16.21;78.16;99047.47;5071307;28;20048;-79
2022/06/24 02:38:07;;;;;;;4.95;1.30;;;;;;;16.18;78.29;99044.44;5053070;28;20501;-79
2022/06/24 02:40:45;;;;;;;3.20;1.05;;;;;;;16.16;78.50;99047.31;5047559;28;20078;-79
2022/06/24 02:43:19;;;;;;;3.65;1.20;;;;;;;16.15;78.77;99047.53;5056656;28;20040;-79
2022/06/24 02:45:52;;;;;;;3.58;1.30;;;;;;;16.13;78.88;99037.09;5052913;28;20036;-79
2022/06/24 02:48:19;;;;;;;3.45;1.10;;;;;;;16.10;79.08;99041.00;5056535;28;20515;-80
2022/06/24 02:50:48;;;;;;;6.53;1.40;;;;;;;16.09;79.06;99042.03;5070721;28;20036;-80
2022/06/24 02:53:15;;;;;;;3.17;1.20;;;;;;;16.07;79.20;99032.63;5065834;28;20083;-79
2022/06/24 02:55:42;;;;;;;1.30;1.20;;;;;;;16.05;79.46;99032.03;5068608;28;20068;-79
2022/06/24 02:58:08;;;;;;;18.52;3.30;;;;;;;16.05;79.45;99032.03;5070993;28;20039;-80
2022/06/24 03:00:34;;;;;;;3.22;1.40;;;;;;;16.01;79.46;99020.97;5070366;28;20502;-80
2022/06/24 03:03:00;;;;;;;3.13;1.42;;;;;;;16.01;79.42;99025.50;5069223;28;20036;-80
2022/06/24 03:05:27;;;;;;;2.70;1.70;;;;;;;15.97;79.33;99012.56;5055556;28;20549;-80
2022/06/24 03:07:53;;;;;;;2.72;1.90;;;;;;;15.84;79.37;99018.81;5069345;28;20029;-79
2022/06/24 03:10:21;;;;;;;2.22;1.95;;;;;;;15.74;79.18;99015.78;5072157;28;20041;-79
2022/06/24 03:12:46;;;;;;;2.08;1.58;;;;;;;15.65;78.94;99011.72;5022528;28;20033;-79
2022/06/24 03:15:13;;;;;;;2.78;2.28;;;;;;;15.54;78.87;99015.88;5071916;28;20508;-79
2022/06/24 03:17:39;;;;;;;1.92;1.80;;;;;;;15.46;78.48;99011.63;5072890;28;20110;-79
2022/06/24 03:20:06;;;;;;;2.58;2.08;;;;;;;15.38;78.32;99007.38;5054905;28;20037;-76
2022/06/24 03:22:32;;;;;;;2.15;1.95;;;;;;;15.29;78.18;99009.44;5049910;28;20036;-76
2022/06/24 03:24:58;;;;;;;3.33;2.28;;;;;;;15.21;78.09;99001.72;5071507;28;20050;-76
2022/06/24 03:27:24;;;;;;;2.35;2.15;;;;;;;15.19;77.98;98996.59;5055023;28;20028;-75
2022/06/24 03:29:50;;;;;;;2.60;2.30;;;;;;;15.17;77.87;98989.81;5047907;28;20032;-75
2022/06/24 03:32:16;;;;;;;3.78;2.20;;;;;;;15.16;77.58;98986.34;5067267;28;20059;-79
2022/06/24 03:34:42;;;;;;;2.35;2.15;;;;;;;15.17;77.27;98982.66;5072182;28;20036;-79
2022/06/24 03:37:08;;;;;;;3.80;2.47;;;;;;;15.14;76.97;98985.75;5065174;28;20049;-76
2022/06/24 03:39:36;;;;;;;2.92;2.63;;;;;;;15.10;76.73;98982.69;5050076;28;20024;-76
2022/06/24 03:42:02;;;;;;;3.35;2.17;;;;;;;15.04;76.77;98990.69;5061325;28;20056;-75
2022/06/24 03:44:28;;;;;;;2.15;1.95;;;;;;;15.02;76.74;98985.56;5068364;28;20036;-76
2022/06/24 03:46:54;;;;;;;3.65;2.22;;;;;;;14.98;76.79;98981.72;5053563;28;20037;-75
2022/06/24 03:49:20;;;;;;;2.72;2.03;;;;;;;14.93;76.75;98979.69;5052787;28;20029;-76
2022/06/24 03:51:46;;;;;;;2.13;1.92;;;;;;;14.88;76.95;98980.31;5064666;28;20382;-79
2022/06/24 03:54:12;;;;;;;2.10;1.90;;;;;;;14.85;76.91;98983.38;5071568;28;20031;-80
2022/06/24 03:56:38;;;;;;;2.20;2.00;;;;;;;14.78;76.97;98984.41;5071350;28;20025;-79
2022/06/24 03:59:04;;;;;;;2.08;1.83;;;;;;;14.78;76.97;98984.41;5053308;28;20137;-79
2022/06/24 04:01:30;;;;;;;2.83;1.92;;;;;;;14.74;77.01;98976.00;5069997;28;20029;-79
2022/06/24 04:03:56;;;;;;;2.55;2.08;;;;;;;14.79;76.79;98978.03;5054500;28;20036;-79
2022/06/24 04:06:22;;;;;;;2.22;2.08;;;;;;;14.85;76.45;98980.72;5053620;28;20137;-80
2022/06/24 04:08:48;;;;;;;2.53;2.20;;;;;;;14.90;76.48;98972.13;5052476;28;20111;-80
2022/06/24 04:11:16;;;;;;;2.53;2.10;;;;;;;14.92;76.20;98966.59;5068845;28;20028;-79
2022/06/24 04:13:43;;;;;;;2.20;1.90;;;;;;;14.92;76.02;98966.59;5062736;28;20505;-79
2022/06/24 04:16:09;;;;;;;2.30;2.20;;;;;;;14.91;76.11;98963.09;5053833;28;20060;-79
2022/06/24 04:18:35;;;;;;;2.22;2.00;;;;;;;14.90;76.26;98963.31;5052796;28;20040;-79
2022/06/24 04:21:01;;;;;;;2.10;1.90;;;;;;;14.90;76.24;98964.13;5051924;28;20040;-79
2022/06/24 04:23:27;;;;;;;2.47;2.25;;;;;;;14.86;76.33;98963.72;5069849;28;20058;-79
2022/06/24 04:25:54;;;;;;;5.00;2.30;;;;;;;14.88;76.43;98964.34;5053704;28;20024;-79
2022/06/24 04:28:20;;;;;;;3.63;2.67;;;;;;;14.91;76.27;98951.66;5036550;28;20393;-80
2022/06/24 04:30:45;;;;;;;2.25;1.90;;;;;;;14.92;76.38;98948.78;5070309;28;20494;-76
2022/06/24 04:33:11;;;;;;;2.30;2.10;;;;;;;14.92;76.45;98940.81;5071475;28;20079;-75
2022/06/24 04:35:40;;;;;;;2.97;2.50;;;;;;;14.95;76.64;98939.56;5070699;28;20032;-79
2022/06/24 04:38:06;;;;;;;2.65;2.40;;;;;;;14.98;76.65;98936.47;5052308;28;20032;-79
2022/06/24 04:40:31;;;;;;;8.27;2.80;;;;;;;15.00;76.67;98932.56;5059083;28;20042;-79
2022/06/24 04:42:57;;;;;;;2.78;2.50;;;;;;;15.03;77.01;98935.84;5053467;28;20051;-79
2022/06/24 04:45:23;;;;;;;4.70;2.33;;;;;;;15.04;76.77;98927.66;5069856;28;20032;-79
2022/06/24 04:47:49;;;;;;;2.70;2.35;;;;;;;15.08;76.97;98926.19;5051830;28;20070;-79
2022/06/24 04:50:15;;;;;;;3.60;2.90;;;;;;;15.09;76.90;98921.69;5061417;28;20067;-80
2022/06/24 04:52:41;;;;;;;2.58;2.38;;;;;;;15.12;76.96;98919.44;5069159;28;20028;-79
2022/06/24 04:55:07;;;;;;;3.78;2.45;;;;;;;15.19;77.05;98916.75;5053129;28;20036;-79
2022/06/24 04:57:34;;;;;;;3.15;2.10;;;;;;;15.19;76.93;98911.44;5054350;28;20063;-79
2022/06/24 05:00:00;;;;;;;1.90;1.70;;;;;;;15.18;77.08;98906.31;5042522;28;20036;-79
2022/06/24 05:02:25;;;;;;;2.88;2.35;;;;;;;15.08;77.48;98901.44;5051647;28;20385;-79
2022/06/24 05:04:51;;;;;;;3.83;2.00;;;;;;;15.03;77.86;98904.75;5053221;28;20496;-79
2022/06/24 05:07:17;;;;;;;2.83;2.10;;;;;;;15.00;78.05;98899.84;5063754;28;20033;-79
2022/06/24 05:09:43;;;;;;;2.03;1.45;;;;;;;14.97;77.94;98903.72;5037061;28;20439;-79
2022/06/24 05:12:09;;;;;;;2.42;1.65;;;;;;;14.93;78.27;98893.72;5054296;28;20071;-79
2022/06/24 05:14:35;;;;;;;2.33;1.58;;;;;;;14.95;78.26;98897.81;5054342;28;20043;-79
2022/06/24 05:17:01;;;;;;;5.10;1.80;;;;;;;14.99;78.32;98900.84;5035611;28;20032;-79
2022/06/24 05:19:27;;;;;;;2.00;1.50;;;;;;;15.00;78.44;98892.66;5052951;28;20063;-79
2022/06/24 05:21:54;;;;;;;3.78;1.80;;;;;;;15.00;78.33;98887.34;5072150;28;20469;-79
2022/06/24 05:24:20;;;;;;;2.50;1.83;;;;;;;15.00;78.63;98890.00;5057645;28;20477;-79
2022/06/24 05:26:46;;;;;;;3.08;1.63;;;;;;;15.02;78.42;98887.13;5075132;28;20028;-79
2022/06/24 05:29:12;;;;;;;1.83;1.73;;;;;;;15.04;78.45;98887.75;5074977;28;20042;-79
2022/06/24 05:31:38;;;;;;;2.13;1.40;;;;;;;15.03;78.64;98885.28;5040423;28;20029;-79
2022/06/24 05:34:06;;;;;;;16.95;2.00;;;;;;;15.03;78.78;98886.13;5057700;28;20044;-79
2022/06/24 05:36:33;;;;;;;2.60;1.73;;;;;;;15.12;78.66;98886.69;5074290;28;20071;-79
2022/06/24 05:39:05;;;;;;;2.38;1.67;;;;;;;15.13;78.59;98873.16;5063180;28;20064;-80
2022/06/24 05:41:31;;;;;;;2.47;1.95;;;;;;;15.08;78.68;98870.31;5052476;28;20063;-79
2022/06/24 05:43:57;;;;;;;4.07;1.80;;;;;;;15.06;78.99;98882.22;5037548;28;20399;-79
2022/06/24 05:46:23;;;;;;;4.35;1.98;;;;;;;15.00;78.94;98874.03;5063286;28;20024;-79
2022/06/24 05:48:49;;;;;;;2.13;1.88;;;;;;;14.95;79.38;98883.69;5056973;28;20040;-79
2022/06/24 05:51:16;;;;;;;3.45;1.70;;;;;;;14.92;79.38;98884.13;5056046;28;20051;-79
2022/06/24 05:56:30;;;;;;;2.00;1.77;;;;;;;14.82;79.83;98872.09;5056410;28;20036;-79
2022/06/24 05:58:57;;;;;;;1.27;1.17;;;;;;;14.82;79.82;98871.25;5074672;28;20492;-79
2022/06/24 06:01:23;;;;;;;2.22;1.25;;;;;;;14.82;80.04;98861.44;5072747;28;20563;-80
2022/06/24 06:03:50;;;;;;;2.00;1.50;;;;;;;14.86;79.96;98867.97;5068325;28;20033;-79
2022/06/24 06:06:16;;;;;;;2.17;1.48;;;;;;;14.88;79.95;98870.41;5051456;28;20078;-80
2022/06/24 06:08:42;;;;;;;5.68;1.40;;;;;;;14.87;80.02;98858.94;5039501;28;20086;-79
2022/06/24 06:11:18;;;;;;;3.35;1.40;;;;;;;14.86;80.26;98859.16;5055625;28;20054;-75
2022/06/24 06:13:45;;;;;;;1.20;1.10;;;;;;;14.87;80.47;98855.50;5072548;28;20036;-75
2022/06/24 06:16:11;;;;;;;1.08;0.90;;;;;;;14.88;80.49;98854.47;5039317;28;20456;-79
2022/06/24 06:18:38;;;;;;;1.38;0.82;;;;;;;14.90;80.55;98855.06;5052958;28;20087;-79
2022/06/24 06:21:07;;;;;;;3.22;1.20;;;;;;;14.94;80.46;98852.81;5068661;28;20032;-79
2022/06/24 06:23:34;;;;;;;1.75;1.00;;;;;;;14.97;80.65;98845.19;5039248;28;20040;-79
2022/06/24 06:26:02;;;;;;;1.27;0.80;;;;;;;15.00;80.62;98851.97;5039283;28;20032;-79
2022/06/24 06:28:28;;;;;;;1.52;1.00;;;;;;;14.98;80.76;98846.84;5073811;28;20108;-79
2022/06/24 06:30:53;;;;;;;1.55;0.70;;;;;;;14.99;81.09;98845.81;5070609;28;20481;-79
2022/06/24 06:33:20;;;;;;;0.70;0.70;;;;;;;15.03;80.88;98835.56;5065484;28;20036;-79
2022/06/24 06:35:46;;;;;;;1.45;0.90;;;;;;;15.05;80.95;98828.16;5055539;28;20043;-79
2022/06/24 06:38:12;;;;;;;1.27;0.90;;;;;;;15.08;80.89;98832.25;5072512;28;20382;-79
2022/06/24 06:40:39;;;;;;;1.77;0.90;;;;;;;15.11;80.96;98829.16;5060186;28;20055;-75
2022/06/24 06:43:06;;;;;;;1.85;0.88;;;;;;;15.14;80.92;98828.75;5060753;28;20066;-75
2022/06/24 06:45:40;;;;;;;0.95;0.63;;;;;;;15.20;80.86;98827.06;5073220;28;20069;-79
2022/06/24 06:48:07;;;;;;;1.45;0.60;;;;;;;15.20;81.08;98824.41;5038941;28;20041;-79
2022/06/24 06:50:33;;;;;;;2.97;0.60;;;;;;;15.23;80.87;98823.97;5064478;28;20051;-75
2022/06/24 06:52:59;;;;;;;0.75;0.70;;;;;;;15.24;81.04;98820.28;5073893;28;20113;-75
2022/06/24 06:55:25;;;;;;;0.90;0.60;;;;;;;15.28;80.98;98820.66;5068685;28;20125;-79
2022/06/24 06:57:51;;;;;;;2.20;0.70;;;;;;;15.26;80.92;98815.53;5052133;28;20527;-79
2022/06/24 07:00:17;;;;;;;0.98;0.50;;;;;;;15.33;80.76;98810.19;5072239;28;20043;-79
2022/06/24 07:02:43;;;;;;;2.15;0.45;;;;;;;15.41;80.78;98804.59;5071823;28;20025;-79
2022/06/24 07:05:09;;;;;;;1.42;0.63;;;;;;;15.48;80.78;98808.00;5071382;28;20036;-79
2022/06/24 07:07:35;;;;;;;0.60;0.40;;;;;;;15.54;80.37;98809.00;5052791;28;20043;-79
2022/06/24 07:10:02;;;;;;;0.55;0.50;;;;;;;15.57;80.27;98808.56;5054536;28;20071;-79
2022/06/24 07:12:27;;;;;;;0.80;0.40;;;;;;;15.57;80.10;98808.56;5072332;28;20024;-79
2022/06/24 07:14:54;;;;;;;36.03;5.97;;;;;;;15.58;80.16;98809.38;5050505;28;20072;-79
2022/06/24 07:17:20;;;;;;;3.60;0.80;;;;;;;15.57;80.20;98800.59;5048905;28;20083;-79
2022/06/24 07:19:46;;;;;;;1.77;0.52;;;;;;;15.55;79.96;98796.50;5070027;28;20477;-79
2022/06/24 07:22:13;;;;;;;1.73;0.70;;;;;;;15.55;80.10;98796.50;5070932;28;20039;-79
2022/06/24 07:24:39;;;;;;;3.97;0.95;;;;;;;15.58;80.17;98790.72;5072661;28;20098;-79
2022/06/24 07:27:09;;;;;;;0.77;0.30;;;;;;;15.60;80.27;98791.34;5051800;28;20032;-79
2022/06/24 07:29:37;;;;;;;2.10;0.43;;;;;;;15.64;80.06;98787.19;5066489;28;20029;-79
2022/06/24 07:32:05;;;;;;;0.68;0.30;;;;;;;15.74;79.88;98789.34;5043823;28;20113;-79
2022/06/24 07:34:31;;;;;;;5.15;0.75;;;;;;;15.81;79.95;98774.16;5078702;28;20059;-79
2022/06/24 07:36:57;;;;;;;5.28;0.30;;;;;;;15.81;79.89;98781.31;5054087;28;20484;-75
2022/06/24 07:39:23;;;;;;;1.13;0.50;;;;;;;15.81;79.92;98773.31;5069843;28;20504;-74
2022/06/24 07:41:49;;;;;;;3.25;0.57;;;;;;;15.92;80.19;98761.13;5062696;28;20029;-79
2022/06/24 07:44:15;;;;;;;1.60;0.30;;;;;;;15.99;80.21;98765.38;5067482;28;20377;-79
2022/06/24 07:46:41;;;;;;;0.30;0.30;;;;;;;16.05;79.87;98762.84;5054475;28;20044;-75
2022/06/24 07:49:07;;;;;;;5.18;0.73;;;;;;;16.09;79.70;98756.84;5071237;28;20044;-75
2022/06/24 07:51:33;;;;;;;5.88;1.10;;;;;;;16.08;79.35;98767.75;5072078;28;20029;-79
2022/06/24 07:53:58;;;;;;;1.67;0.30;;;;;;;16.01;79.08;98757.16;5056031;28;20039;-79
2022/06/24 07:57:09;;;;;;;6.43;0.73;;;;;;;15.99;79.27;98756.53;5036271;28;20037;-79
2022/06/24 07:59:10;;;;;;;1.55;0.30;;;;;;;15.96;79.35;98760.44;5058757;28;20051;-79
2022/06/24 08:01:36;;;;;;;0.40;0.30;;;;;;;15.99;79.23;98753.88;5044345;28;20029;-79
2022/06/24 08:04:07;;;;;;;9.55;0.82;;;;;;;16.05;79.30;98750.34;5057556;28;20032;-79
2022/06/24 08:06:49;;;;;;;5.30;0.22;;;;;;;16.11;78.79;98754.78;5062460;28;20396;-79
2022/06/24 08:09:17;;;;;;;0.80;0.20;;;;;;;16.20;78.77;98747.28;5029772;28;20037;-79
2022/06/24 08:11:44;;;;;;;1.67;0.10;;;;;;;16.28;78.42;98740.03;5053803;28;20029;-80
2022/06/24 08:14:10;;;;;;;1.20;0.30;;;;;;;16.32;77.98;98747.38;5070655;28;20032;-79
2022/06/24 08:16:36;;;;;;;2.88;0.30;;;;;;;16.33;78.12;98740.16;5066070;28;20473;-79
2022/06/24 08:19:02;;;;;;;6.55;0.25;;;;;;;16.36;77.84;98745.88;5045389;28;20071;-79
2022/06/24 08:21:28;;;;;;;3.05;0.20;;;;;;;16.41;77.81;98737.19;5053391;28;20032;-79
2022/06/24 08:23:54;;;;;;;6.47;0.45;;;;;;;16.37;77.44;98736.03;5069552;28;20037;-79
2022/06/24 08:26:20;;;;;;;2.55;0.80;;;;;;;16.33;77.70;98735.66;5052024;28;20496;-75
2022/06/24 08:28:46;;;;;;;3.55;0.43;;;;;;;16.32;77.78;98738.56;5068107;28;20058;-75
2022/06/24 08:31:12;;;;;;;3.83;0.22;;;;;;;16.28;77.55;98737.34;5036365;28;20032;-79
2022/06/24 08:33:38;;;;;;;1.25;0.20;;;;;;;16.16;77.53;98732.81;5034010;28;20393;-79
2022/06/24 08:36:04;;;;;;;2.08;0.20;;;;;;;16.01;77.83;98732.38;5059152;28;20098;-79
2022/06/24 08:38:30;;;;;;;1.63;0.22;;;;;;;15.90;78.06;98729.38;5049477;28;20032;-79
2022/06/24 08:40:59;;;;;;;3.03;0.20;;;;;;;15.84;78.48;98723.09;5067026;28;20040;-79
2022/06/24 08:43:30;;;;;;;3.35;0.38;;;;;;;15.80;78.87;98719.22;5065358;28;20428;-79
2022/06/24 08:45:57;;;;;;;2.05;0.38;;;;;;;15.83;79.17;98712.66;5070224;28;20044;-79
2022/06/24 08:48:26;;;;;;;2.40;0.40;;;;;;;15.94;78.77;98711.09;5053854;28;20155;-79
2022/06/24 08:50:52;;;;;;;4.13;0.20;;;;;;;16.04;78.73;98699.94;5046812;28;20107;-79
2022/06/24 08:53:21;;;;;;;2.20;0.45;;;;;;;16.12;78.66;98697.78;5070080;28;20086;-80
2022/06/24 08:55:50;;;;;;;1.20;0.20;;;;;;;16.21;78.35;98689.47;5069742;28;20024;-79
2022/06/24 08:58:18;;;;;;;6.07;0.55;;;;;;;16.23;78.58;98688.19;5029838;28;20070;-79
2022/06/24 09:00:44;;;;;;;0.50;0.30;;;;;;;16.24;78.01;98695.16;5069879;28;20024;-79
2022/06/24 09:03:11;;;;;;;2.40;0.20;;;;;;;16.15;78.20;98691.16;5051645;28;20040;-79
2022/06/24 09:05:37;;;;;;;1.75;0.40;;;;;;;16.09;78.28;98687.56;5027960;28;20060;-79
2022/06/24 09:08:05;;;;;;;2.75;0.40;;;;;;;16.12;78.46;98679.13;5062288;28;20064;-79
2022/06/24 09:10:32;;;;;;;2.78;0.22;;;;;;;16.19;78.45;98684.38;5069953;28;20048;-79
2022/06/24 09:12:58;;;;;;;1.50;0.20;;;;;;;16.16;78.81;98676.81;5052932;28;20035;-79
2022/06/24 09:15:25;;;;;;;1.52;0.30;;;;;;;16.09;79.38;98676.91;5042667;28;20033;-75
2022/06/24 09:17:51;;;;;;;0.10;0.10;;;;;;;15.98;79.99;98677.66;5051975;28;20439;-75
2022/06/24 09:20:21;;;;;;;0.30;0.10;;;;;;;15.96;80.69;98675.19;5064760;28;20036;-75
2022/06/24 09:22:48;;;;;;;0.30;0.20;;;;;;;15.91;81.14;98669.69;5068429;28;20036;-75
2022/06/24 09:25:14;;;;;;;0.45;0.10;;;;;;;15.90;81.39;98662.75;5066557;28;20034;-79
2022/06/24 09:27:45;;;;;;;4.45;0.20;;;;;;;15.91;81.63;98664.38;5046511;28;20033;-79
2022/06/24 09:30:14;;;;;;;2.78;1.00;;;;;;;15.98;82.01;98665.16;5048343;28;20037;-79
2022/06/24 09:32:54;;;;;;;0.20;0.10;;;;;;;15.99;82.36;98660.63;5048869;28;20078;-79
2022/06/24 09:35:22;;;;;;;0.17;0.10;;;;;;;16.00;82.31;98651.59;5048833;28;20060;-79
2022/06/24 09:37:50;;;;;;;0.13;0.10;;;;;;;16.07;82.58;98648.88;5046918;28;20044;-79
2022/06/24 09:40:21;;;;;;;2.58;0.10;;;;;;;16.08;82.42;98655.81;5050944;28;20463;-79
2022/06/24 09:43:04;;;;;;;0.25;0.08;;;;;;;16.08;82.90;98642.47;5058926;28;20062;-78
2022/06/24 09:45:51;;;;;;;0.30;0.00;;;;;;;15.96;83.61;98645.06;5051133;28;20032;-75
2022/06/24 09:48:34;;;;;;;0.00;0.00;;;;;;;15.84;83.86;98637.84;5049862;28;20085;-74
2022/06/24 09:51:02;;;;;;;0.00;0.00;;;;;;;15.77;84.37;98639.75;5050304;28;20032;-75
2022/06/24 09:53:32;;;;;;;0.38;0.10;;;;;;;15.71;84.48;98628.16;5068620;28;20036;-74
2022/06/24 09:55:59;;;;;;;0.00;0.00;;;;;;;15.69;84.52;98638.19;5049061;28;20029;-79
2022/06/24 09:58:25;;;;;;;70.75;7.35;;;;;;;15.63;85.00;98634.59;5045735;28;20031;-79
2022/06/24 10:00:51;;;;;;;6.75;1.05;;;;;;;15.52;85.14;98635.31;5032306;28;20032;-79
2022/06/24 10:03:18;;;;;;;1.70;0.38;;;;;;;15.45;85.56;98627.41;5053329;28;20488;-78
2022/06/24 10:05:48;;;;;;;1.20;0.00;;;;;;;15.44;85.92;98622.31;5067107;28;20039;-78
2022/06/24 10:08:20;;;;;;;2.28;0.10;;;;;;;15.46;86.17;98623.72;5067938;28;20504;-79
2022/06/24 10:10:45;;;;;;;0.40;0.08;;;;;;;15.47;86.29;98608.53;5063545;28;20028;-79
2022/06/24 10:13:22;;;;;;;0.10;0.00;;;;;;;15.41;86.33;98612.09;5072197;28;20037;-79
2022/06/24 10:15:49;;;;;;;0.00;0.00;;;;;;;15.35;86.62;98603.94;5053252;28;20029;-79
2022/06/24 10:18:19;;;;;;;0.60;0.10;;;;;;;15.35;87.07;98603.94;5054449;28;20106;-78
2022/06/24 10:20:46;;;;;;;2.40;0.10;;;;;;;15.37;87.08;98609.88;5072628;28;20025;-79
2022/06/24 10:23:38;;;;;;;0.00;0.00;;;;;;;15.41;86.99;98604.09;5073374;28;20055;-78
2022/06/24 10:26:10;;;;;;;1.88;0.10;;;;;;;15.46;87.17;98602.44;5054739;28;20037;-79
2022/06/24 10:29:04;;;;;;;0.55;0.10;;;;;;;15.50;87.32;98600.13;5071906;28;20039;-79
2022/06/24 10:31:43;;;;;;;0.00;0.00;;;;;;;15.50;87.50;98592.94;5048655;28;20499;-74
2022/06/24 10:34:09;;;;;;;3.40;0.95;;;;;;;15.51;87.77;98596.44;5053739;28;20119;-74
2022/06/24 10:36:35;;;;;;;1.95;0.10;;;;;;;15.52;87.84;98602.56;5048667;28;20556;-79
2022/06/24 10:39:12;;;;;;;0.05;0.00;;;;;;;15.47;88.31;98600.56;5072317;28;20048;-79
2022/06/24 10:41:39;;;;;;;0.00;0.00;;;;;;;15.45;88.67;98594.66;5071104;28;20028;-74
2022/06/24 10:44:22;;;;;;;0.70;0.10;;;;;;;15.48;89.18;98588.91;5055427;28;20439;-74
2022/06/24 10:47:08;;;;;;;0.00;0.00;;;;;;;15.48;89.46;98596.88;5038819;28;20391;-79
2022/06/24 10:49:52;;;;;;;;;;;;;;;15.29;90.64;98580.88;5073360;28;20447;-79
2022/06/24 10:52:48;;;;;;;3.65;0.20;;;;;;;15.33;89.86;98586.59;5071701;28;20006;-79
2022/06/24 10:55:17;;;;;;;0.40;0.08;;;;;;;15.33;90.06;98578.59;5056082;28;20032;-75
2022/06/24 10:57:48;;;;;;;0.68;0.10;;;;;;;15.29;90.28;98578.22;5072942;28;20115;-74
2022/06/24 11:00:20;;;;;;;0.80;0.10;;;;;;;15.30;90.44;98581.72;5056658;28;20349;-78
2022/06/24 11:02:50;;;;;;;0.10;0.10;;;;;;;15.24;90.71;98576.22;5070195;28;20028;-79
2022/06/24 11:05:30;;;;;;;0.32;0.10;;;;;;;15.24;90.70;98567.44;5072852;28;20428;-79
2022/06/24 11:07:56;;;;;;;0.05;0.00;;;;;;;15.20;90.95;98572.41;5055345;28;20035;-79
2022/06/24 11:10:24;;;;;;;2.15;0.10;;;;;;;15.23;90.84;98566.63;5056226;28;20396;-79
2022/06/24 11:12:52;;;;;;;0.00;0.00;;;;;;;15.24;90.94;98567.44;5053264;28;20565;-79
2022/06/24 11:15:20;;;;;;;4.70;0.13;;;;;;;15.25;90.60;98567.22;5066008;28;20056;-75
2022/06/24 11:17:45;;;;;;;0.10;0.10;;;;;;;15.24;90.84;98557.59;5071582;28;20029;-75
2022/06/24 11:20:13;;;;;;;0.68;0.10;;;;;;;15.26;91.20;98557.38;5068619;28;20040;-79
2022/06/24 11:22:46;;;;;;;0.38;0.10;;;;;;;15.23;91.63;98552.50;5054698;28;20063;-79
2022/06/24 11:25:14;;;;;;;0.95;0.10;;;;;;;15.18;91.69;98547.84;5049989;28;20414;-79
2022/06/24 11:27:40;;;;;;;1.98;0.50;;;;;;;15.20;91.96;98542.28;5054000;28;20443;-79
2022/06/24 11:30:07;;;;;;;0.75;0.13;;;;;;;15.22;92.15;98534.91;5072767;28;20044;-79
2022/06/24 11:32:53;;;;;;;0.20;0.20;;;;;;;15.21;92.39;98550.06;5037903;28;20032;-79
2022/06/24 11:35:20;;;;;;;0.43;0.10;;;;;;;15.21;92.76;98538.63;5052694;28;20038;-79
2022/06/24 11:37:46;;;;;;;0.13;0.08;;;;;;;15.16;93.02;98531.28;5069700;28;20059;-79
2022/06/24 11:40:26;;;;;;;0.10;0.05;;;;;;;15.12;92.89;98538.91;5053888;28;20510;-79
2022/06/24 11:42:53;;;;;;;0.30;0.20;;;;;;;15.12;93.37;98530.09;5067857;28;20427;-78
2022/06/24 11:45:31;;;;;;;1.70;0.15;;;;;;;15.14;93.22;98528.03;5053694;28;20051;-79